createdAt,value
2022-12-05T00:00:31.013Z,102261.56
2022-12-05T00:03:12.112Z,102262.23
2022-12-05T00:05:44.486Z,102254.36
2022-12-05T00:08:17.001Z,102250.77
2022-12-05T00:10:49.276Z,102252.78
2022-12-05T00:13:21.636Z,102254.33
2022-12-05T00:15:53.998Z,102259.29
2022-12-05T00:18:26.265Z,102264.23
2022-12-05T00:20:58.936Z,102264.79
2022-12-05T00:23:31.631Z,102267.36
2022-12-05T00:26:06.279Z,102267.81
2022-12-05T00:28:38.692Z,102264.02
2022-12-05T00:31:09.980Z,102266.54
2022-12-05T00:33:42.461Z,102263.30
2022-12-05T00:36:16.720Z,102259.28
2022-12-05T00:38:49.271Z,102259.16
2022-12-05T00:41:23.002Z,102254.10
2022-12-05T00:43:55.435Z,102252.02
2022-12-05T00:46:30.040Z,102248.86
2022-12-05T00:49:03.474Z,102249.77
2022-12-05T00:51:37.021Z,102248.65
2022-12-05T00:54:10.928Z,102248.49
2022-12-05T00:56:43.244Z,102252.96
2022-12-05T00:59:18.797Z,102255.63
2022-12-05T01:01:51.762Z,102250.59
2022-12-05T01:04:25.690Z,102245.67
2022-12-05T01:06:59.714Z,102245.11
2022-12-05T01:09:33.225Z,102243.58
2022-12-05T01:12:05.799Z,102241.45
2022-12-05T01:14:38.004Z,102242.04
2022-12-05T01:17:11.155Z,102238.45
2022-12-05T01:19:43.453Z,102240.77
2022-12-05T01:22:15.767Z,102236.89
2022-12-05T01:24:48.116Z,102234.02
2022-12-05T01:27:20.427Z,102235.20
2022-12-05T01:29:52.726Z,102232.05
2022-12-05T01:32:24.956Z,102236.30
2022-12-05T01:34:57.463Z,102233.27
2022-12-05T01:37:28.060Z,102229.14
2022-12-05T01:40:00.444Z,102232.00
2022-12-05T01:42:32.673Z,102228.16
2022-12-05T01:45:18.160Z,102224.88
2022-12-05T01:47:50.427Z,102224.45
2022-12-05T01:50:23.019Z,102227.95
2022-12-05T01:52:55.302Z,102228.55
2022-12-05T01:55:27.708Z,102223.91
2022-12-05T01:58:00.558Z,102222.36
2022-12-05T02:00:33.020Z,102223.45
2022-12-05T02:03:09.091Z,102224.75
2022-12-05T02:05:41.497Z,102225.89
2022-12-05T02:08:14.554Z,102223.18
2022-12-05T02:10:49.182Z,102220.29
2022-12-05T02:13:44.794Z,102215.45
2022-12-05T02:16:37.472Z,102212.86
2022-12-05T02:19:23.045Z,102216.77
2022-12-05T02:22:28.865Z,102213.11
2022-12-05T02:25:38.467Z,102210.80
2022-12-05T02:28:35.279Z,102212.06
2022-12-05T02:31:11.647Z,102211.13
2022-12-05T02:33:47.840Z,102204.58
2022-12-05T02:36:24.143Z,102205.27
2022-12-05T02:39:04.769Z,102203.38
2022-12-05T02:41:41.099Z,102205.96
2022-12-05T02:44:17.250Z,102203.98
2022-12-05T02:46:50.340Z,102204.39
2022-12-05T02:49:26.396Z,102207.62
2022-12-05T02:52:01.264Z,102208.91
2022-12-05T02:54:37.183Z,102212.33
2022-12-05T02:57:10.902Z,102209.11
2022-12-05T02:59:43.158Z,102209.95
2022-12-05T03:02:26.555Z,102211.52
2022-12-05T03:05:16.091Z,102214.84
2022-12-05T03:07:50.352Z,102216.79
2022-12-05T03:10:25.215Z,102212.78
2022-12-05T03:13:00.366Z,102212.94
2022-12-05T03:15:34.442Z,102211.73
2022-12-05T03:18:10.341Z,102212.98
2022-12-05T03:20:47.442Z,102218.92
2022-12-05T03:23:24.839Z,102219.04
2022-12-05T03:26:05.250Z,102220.20
2022-12-05T03:28:43.511Z,102219.64
2022-12-05T03:31:18.197Z,102216.88
2022-12-05T03:33:53.641Z,102216.91
2022-12-05T03:36:34.010Z,102217.20
2022-12-05T03:39:10.372Z,102220.69
2022-12-05T03:41:44.790Z,102217.96
2022-12-05T03:44:19.466Z,102219.48
2022-12-05T03:46:54.405Z,102215.86
2022-12-05T03:49:34.172Z,102213.53
2022-12-05T03:52:11.152Z,102209.36
2022-12-05T03:54:45.509Z,102208.56
2022-12-05T03:57:21.148Z,102206.23
2022-12-05T03:59:56.751Z,102203.23
2022-12-05T04:02:31.995Z,102203.73
2022-12-05T04:05:06.771Z,102200.20
2022-12-05T04:07:40.772Z,102198.53
2022-12-05T04:10:17.532Z,102200.76
2022-12-05T04:12:50.189Z,102199.86
2022-12-05T04:15:26.015Z,102203.90
2022-12-05T04:18:01.046Z,102201.96
2022-12-05T04:20:54.408Z,102199.08
2022-12-05T04:23:27.361Z,102201.98
2022-12-05T04:26:07.015Z,102197.80
2022-12-05T04:28:43.357Z,102200.98
2022-12-05T04:31:19.475Z,102202.89
2022-12-05T04:33:55.434Z,102205.73
2022-12-05T04:36:32.038Z,102202.45
2022-12-05T04:39:10.695Z,102200.89
2022-12-05T04:41:50.244Z,102197.98
2022-12-05T04:44:25.244Z,102198.16
2022-12-05T04:46:59.029Z,102196.95
2022-12-05T04:49:32.664Z,102196.28
2022-12-05T04:52:09.488Z,102194.25
2022-12-05T04:54:45.488Z,102197.11
2022-12-05T04:57:20.061Z,102197.65
2022-12-05T04:59:53.632Z,102199.02
2022-12-05T05:02:33.224Z,102200.66
2022-12-05T05:05:10.967Z,102199.33
2022-12-05T05:07:50.489Z,102203.49
2022-12-05T05:10:27.127Z,102201.66
2022-12-05T05:12:59.401Z,102201.78
2022-12-05T05:15:32.238Z,102201.98
2022-12-05T05:18:05.032Z,102202.25
2022-12-05T05:20:37.323Z,102207.11
2022-12-05T05:23:10.132Z,102209.21
2022-12-05T05:25:42.537Z,102214.57
2022-12-05T05:28:14.860Z,102217.28
2022-12-05T05:30:47.754Z,102218.98
2022-12-05T05:33:21.132Z,102215.86
2022-12-05T05:35:53.402Z,102218.92
2022-12-05T05:38:25.656Z,102218.76
2022-12-05T05:40:57.941Z,102216.13
2022-12-05T05:43:30.237Z,102217.59
2022-12-05T05:46:06.771Z,102219.96
2022-12-05T05:48:40.088Z,102215.15
2022-12-05T05:51:14.715Z,102214.21
2022-12-05T05:53:48.039Z,102215.58
2022-12-05T05:56:22.757Z,102212.55
2022-12-05T05:59:01.391Z,102219.04
2022-12-05T06:01:34.739Z,102218.02
2022-12-05T06:04:08.000Z,102220.48
2022-12-05T06:06:41.426Z,102224.11
2022-12-05T06:09:14.075Z,102221.78
2022-12-05T06:11:44.500Z,102221.27
2022-12-05T06:14:17.244Z,102222.04
2022-12-05T06:16:52.827Z,102220.38
2022-12-05T06:19:26.601Z,102224.80
2022-12-05T06:22:07.120Z,102223.67
2022-12-05T06:24:43.406Z,102226.78
2022-12-05T06:31:36.819Z,102236.52
2022-12-05T06:34:12.120Z,102236.81
2022-12-05T06:36:46.990Z,102235.14
2022-12-05T06:39:19.774Z,102230.88
2022-12-05T06:41:55.014Z,102227.10
2022-12-05T06:44:29.224Z,102222.89
2022-12-05T06:47:03.396Z,102223.61
2022-12-05T06:49:38.363Z,102220.66
2022-12-05T06:52:11.571Z,102218.36
2022-12-05T06:54:47.772Z,102221.77
2022-12-05T06:57:22.007Z,102222.67
2022-12-05T07:04:43.813Z,102229.41
2022-12-05T07:07:17.808Z,102228.35
2022-12-05T07:09:53.956Z,102229.92
2022-12-05T07:12:29.092Z,102231.33
2022-12-05T07:15:02.125Z,102238.77
2022-12-05T07:23:15.282Z,102242.79
2022-12-05T07:25:47.573Z,102246.98
2022-12-05T07:28:20.142Z,102249.70
2022-12-05T07:30:59.827Z,102247.41
2022-12-05T07:33:32.144Z,102254.33
2022-12-05T07:36:05.717Z,102255.84
2022-12-05T07:38:38.120Z,102258.48
2022-12-05T07:41:13.669Z,102256.48
2022-12-05T07:43:46.472Z,102259.62
2022-12-05T07:46:18.930Z,102259.85
2022-12-05T07:48:50.636Z,102264.64
2022-12-05T07:51:23.476Z,102267.98
2022-12-05T07:53:55.991Z,102272.92
2022-12-05T07:56:28.777Z,102271.40
2022-12-05T07:59:01.262Z,102274.29
2022-12-05T08:01:33.956Z,102276.87
2022-12-05T08:04:10.713Z,102277.76
2022-12-05T08:06:46.260Z,102278.58
2022-12-05T08:09:18.614Z,102280.57
2022-12-05T08:11:52.726Z,102281.14
2022-12-05T08:14:25.479Z,102282.90
2022-12-05T08:16:58.093Z,102287.80
2022-12-05T08:19:30.559Z,102287.32
2022-12-05T08:22:02.914Z,102287.70
2022-12-05T08:24:35.441Z,102287.41
2022-12-05T08:27:08.637Z,102282.77
2022-12-05T08:29:40.903Z,102284.30
2022-12-05T08:32:13.200Z,102286.46
2022-12-05T08:34:45.511Z,102284.52
2022-12-05T08:37:17.846Z,102282.89
2022-12-05T08:39:51.135Z,102281.52
2022-12-05T08:42:23.387Z,102279.64
2022-12-05T08:44:55.839Z,102276.23
2022-12-05T08:47:28.615Z,102272.34
2022-12-05T08:49:59.559Z,102272.55
2022-12-05T08:52:32.171Z,102264.12
2022-12-05T08:55:04.760Z,102263.14
2022-12-05T08:57:37.134Z,102262.19
2022-12-05T09:00:12.399Z,102256.64
2022-12-05T09:02:44.748Z,102252.73
2022-12-05T09:05:27.586Z,102246.27
2022-12-05T09:08:01.705Z,102243.91
2022-12-05T09:10:34.186Z,102239.70
2022-12-05T09:13:07.073Z,102237.12
2022-12-05T09:15:41.186Z,102234.91
2022-12-05T09:18:15.495Z,102232.82
2022-12-05T09:20:47.949Z,102225.23
2022-12-05T09:23:20.631Z,102222.56
2022-12-05T09:25:58.313Z,102221.98
2022-12-05T09:28:31.376Z,102219.87
2022-12-05T09:31:05.304Z,102213.77
2022-12-05T09:33:38.892Z,102212.07
2022-12-05T09:36:14.776Z,102205.11
2022-12-05T09:38:47.521Z,102200.22
2022-12-05T09:41:46.093Z,102202.50
2022-12-05T09:44:22.672Z,102195.88
2022-12-05T09:46:58.237Z,102192.80
2022-12-05T09:49:31.497Z,102186.37
2022-12-05T09:52:04.602Z,102181.80
2022-12-05T09:54:37.195Z,102180.94
2022-12-05T09:57:08.219Z,102182.14
2022-12-05T09:59:40.608Z,102179.91
2022-12-05T10:02:26.042Z,102180.77
2022-12-05T10:05:03.066Z,102179.23
2022-12-05T10:07:39.654Z,102176.51
2022-12-05T10:10:25.703Z,102170.48
2022-12-05T10:13:09.117Z,102171.51
2022-12-05T10:15:45.671Z,102172.85
2022-12-05T10:18:28.796Z,102171.39
2022-12-05T10:21:04.188Z,102165.47
2022-12-05T10:23:57.084Z,102161.66
2022-12-05T10:26:34.108Z,102155.87
2022-12-05T10:29:13.676Z,102157.05
2022-12-05T10:31:47.103Z,102151.70
2022-12-05T10:34:23.420Z,102153.77
2022-12-05T10:36:58.594Z,102154.32
2022-12-05T10:39:31.873Z,102153.41
2022-12-05T10:42:04.328Z,102150.22
2022-12-05T10:44:37.722Z,102140.84
2022-12-05T10:47:10.437Z,102138.70
2022-12-05T10:49:45.110Z,102134.77
2022-12-05T10:52:17.949Z,102137.20
2022-12-05T10:54:53.098Z,102136.48
2022-12-05T10:57:27.574Z,102131.52
2022-12-05T11:00:10.385Z,102132.37
2022-12-05T11:02:46.015Z,102129.36
2022-12-05T11:05:19.029Z,102127.05
2022-12-05T11:07:51.462Z,102126.27
2022-12-05T11:10:26.630Z,102121.79
2022-12-05T11:13:01.341Z,102118.95
2022-12-05T11:15:34.353Z,102113.79
2022-12-05T11:21:18.269Z,102109.52
2022-12-05T11:23:51.903Z,102106.16
2022-12-05T11:26:40.941Z,102094.20
2022-12-05T11:29:32.376Z,102098.27
2022-12-05T11:32:07.338Z,102092.73
2022-12-05T11:34:43.779Z,102092.40
2022-12-05T11:37:19.696Z,102087.36
2022-12-05T11:39:52.016Z,102085.70
2022-12-05T11:42:36.747Z,102078.69
2022-12-05T11:45:35.187Z,102073.02
2022-12-05T11:48:17.499Z,102069.09
2022-12-05T11:51:00.426Z,102068.68
2022-12-05T11:53:48.968Z,102068.39
2022-12-05T11:56:31.859Z,102062.75
2022-12-05T11:59:23.211Z,102059.47
2022-12-05T12:02:04.015Z,102056.68
2022-12-05T12:04:45.468Z,102049.03
2022-12-05T12:07:26.997Z,102046.55
2022-12-05T12:10:09.778Z,102045.88
2022-12-05T12:12:48.593Z,102047.75
2022-12-05T12:15:52.199Z,102047.92
2022-12-05T12:18:48.393Z,102048.21
2022-12-05T12:21:23.152Z,102046.42
2022-12-05T12:24:04.205Z,102046.09
2022-12-05T12:26:44.243Z,102043.80
2022-12-05T12:29:26.640Z,102044.96
2022-12-05T12:32:12.880Z,102044.97
2022-12-05T12:35:06.703Z,102042.02
2022-12-05T12:37:48.393Z,102039.77
2022-12-05T12:40:25.942Z,102034.35
2022-12-05T12:43:07.961Z,102034.48
2022-12-05T12:45:49.421Z,102037.06
2022-12-05T12:48:42.378Z,102034.56
2022-12-05T12:51:16.281Z,102033.21
2022-12-05T12:54:06.663Z,102032.86
2022-12-05T12:56:48.166Z,102030.50
2022-12-05T12:59:41.977Z,102023.52
2022-12-05T13:02:19.783Z,102022.21
2022-12-05T13:04:56.404Z,102024.79
2022-12-05T13:07:33.829Z,102020.71
2022-12-05T13:10:13.507Z,102019.69
2022-12-05T13:12:47.265Z,102014.45
2022-12-05T13:15:23.374Z,102010.68
2022-12-05T13:17:57.680Z,102008.95
2022-12-05T13:20:34.488Z,102005.45
2022-12-05T13:23:08.546Z,102005.23
2022-12-05T13:25:42.783Z,102001.86
2022-12-05T13:28:27.174Z,101999.84
2022-12-05T13:31:01.948Z,101994.00
2022-12-05T13:33:37.220Z,101995.39
2022-12-05T13:36:32.215Z,101993.51
2022-12-05T13:39:23.715Z,101997.44
2022-12-05T13:42:17.281Z,101999.08
2022-12-05T13:44:52.036Z,102001.65
2022-12-05T13:47:32.298Z,102001.53
2022-12-05T13:54:20.082Z,102004.70
2022-12-05T13:56:59.219Z,102003.61
2022-12-05T14:00:05.175Z,102004.95
2022-12-05T14:11:19.123Z,102005.60
2022-12-05T14:13:52.083Z,102003.63
2022-12-05T14:16:51.181Z,102003.82
2022-12-05T14:19:46.875Z,102002.95
2022-12-05T14:22:40.788Z,102000.77
2022-12-05T14:25:26.219Z,102000.74
2022-12-05T14:28:06.491Z,101998.83
2022-12-05T14:30:52.123Z,101999.07
2022-12-05T14:33:27.515Z,101998.02
2022-12-05T14:36:15.329Z,101992.80
2022-12-05T14:38:51.257Z,101994.71
2022-12-05T14:41:37.087Z,101991.59
2022-12-05T14:44:22.950Z,101992.07
2022-12-05T14:47:04.034Z,101991.09
2022-12-05T14:49:58.027Z,101989.33
2022-12-05T14:52:38.597Z,101989.38
2022-12-05T14:55:19.616Z,101984.19
2022-12-05T14:58:10.945Z,101983.90
2022-12-05T15:00:51.035Z,101983.88
2022-12-05T15:03:38.488Z,101983.10
2022-12-05T15:06:19.450Z,101985.32
2022-12-05T15:09:43.927Z,101987.17
2022-12-05T15:12:27.033Z,101987.05
2022-12-05T15:15:08.392Z,101989.18
2022-12-05T15:17:59.812Z,101987.36
2022-12-05T15:20:45.767Z,101988.35
2022-12-05T15:24:01.496Z,101978.50
2022-12-05T15:26:46.809Z,101978.05
2022-12-05T15:29:28.091Z,101978.60
2022-12-05T15:32:05.222Z,101977.23
2022-12-05T15:34:45.025Z,101981.52
2022-12-05T15:37:22.252Z,101986.38
2022-12-05T15:40:06.523Z,101984.33
2022-12-05T15:42:42.846Z,101987.58
2022-12-05T15:45:46.022Z,101989.44
2022-12-05T15:48:35.659Z,101986.13
2022-12-05T15:51:16.614Z,101988.43
2022-12-05T15:53:59.553Z,101992.35
2022-12-05T15:56:40.087Z,101995.55
2022-12-05T15:59:18.755Z,101997.70
2022-12-05T16:01:56.629Z,101995.88
2022-12-05T16:04:54.836Z,101991.23
2022-12-05T16:07:45.943Z,101984.55
2022-12-05T16:10:37.293Z,101981.95
2022-12-05T16:13:36.697Z,101980.70
2022-12-05T16:16:19.682Z,101980.83
2022-12-05T16:19:02.459Z,101979.81
2022-12-05T16:21:43.003Z,101983.14
2022-12-05T16:24:29.952Z,101981.02
2022-12-05T16:27:16.852Z,101982.29
2022-12-05T16:29:52.717Z,101982.36
2022-12-05T16:32:38.016Z,101981.75
2022-12-05T16:35:49.291Z,101981.73
2022-12-05T16:38:25.848Z,101982.31
2022-12-05T16:41:02.698Z,101981.56
2022-12-05T16:43:48.431Z,101982.17
2022-12-05T16:46:53.711Z,101980.88
2022-12-05T16:49:44.342Z,101979.49
2022-12-05T16:52:24.533Z,101977.87
2022-12-05T16:55:07.924Z,101975.08
2022-12-05T16:57:47.924Z,101975.71
2022-12-05T17:00:52.305Z,101981.11
2022-12-05T17:03:34.402Z,101982.45
2022-12-05T17:06:12.803Z,101980.87
2022-12-05T17:08:46.623Z,101984.10
2022-12-05T17:11:22.100Z,101985.93
2022-12-05T17:13:55.245Z,101986.35
2022-12-05T17:16:29.385Z,101987.88
2022-12-05T17:19:06.600Z,101990.08
2022-12-05T17:21:39.420Z,101993.52
2022-12-05T17:24:17.396Z,101991.48
2022-12-05T17:26:50.026Z,101989.07
2022-12-05T17:29:22.349Z,101990.38
2022-12-05T17:31:54.707Z,101988.49
2022-12-05T17:34:27.129Z,101983.05
2022-12-05T17:37:01.728Z,101982.21
2022-12-05T17:39:36.258Z,101991.13
2022-12-05T17:42:09.480Z,101985.30
2022-12-05T17:44:42.958Z,101986.00
2022-12-05T17:47:15.393Z,101982.62
2022-12-05T17:49:47.941Z,101984.02
2022-12-05T17:52:21.908Z,101983.55
2022-12-05T17:54:54.893Z,101976.41
2022-12-05T17:57:27.702Z,101975.67
2022-12-05T18:00:04.333Z,101977.84
2022-12-05T18:02:37.030Z,101979.42
2022-12-05T18:05:10.971Z,101979.55
2022-12-05T18:07:45.335Z,101978.81
2022-12-05T18:10:21.106Z,101977.98
2022-12-05T18:12:54.726Z,101978.65
2022-12-05T18:15:27.070Z,101979.09
2022-12-05T18:18:03.168Z,101977.40
2022-12-05T18:20:36.940Z,101976.13
2022-12-05T18:23:09.251Z,101975.60
2022-12-05T18:25:41.712Z,101973.65
2022-12-05T18:28:17.863Z,101973.65
2022-12-05T18:30:51.914Z,101972.56
2022-12-05T18:33:24.480Z,101974.81
2022-12-05T18:35:56.754Z,101974.30
2022-12-05T18:38:29.078Z,101971.26
2022-12-05T18:41:03.980Z,101972.54
2022-12-05T18:43:37.503Z,101969.64
2022-12-05T18:46:09.981Z,101972.41
2022-12-05T18:48:44.807Z,101970.02
2022-12-05T18:51:21.984Z,101969.14
2022-12-05T18:53:56.893Z,101967.73
2022-12-05T18:56:31.276Z,101967.20
2022-12-05T18:59:05.033Z,101965.81
2022-12-05T19:01:39.788Z,101965.50
2022-12-05T19:04:13.653Z,101963.52
2022-12-05T19:06:49.889Z,101962.50
2022-12-05T19:09:23.684Z,101960.04
2022-12-05T19:11:58.801Z,101958.63
2022-12-05T19:14:33.312Z,101958.80
2022-12-05T19:17:05.697Z,101955.92
2022-12-05T19:19:38.064Z,101955.79
2022-12-05T19:22:10.379Z,101952.05
2022-12-05T19:24:42.748Z,101945.67
2022-12-05T19:27:15.499Z,101943.80
2022-12-05T19:29:47.808Z,101946.27
2022-12-05T19:32:20.080Z,101949.73
2022-12-05T19:34:52.427Z,101948.80
2022-12-05T19:37:24.689Z,101946.94
2022-12-05T19:39:57.138Z,101945.68
2022-12-05T19:42:31.186Z,101941.20
2022-12-05T19:45:08.152Z,101940.08
2022-12-05T19:47:42.656Z,101939.50
2022-12-05T19:50:14.866Z,101940.03
2022-12-05T19:52:47.042Z,101938.63
2022-12-05T19:55:19.335Z,101937.11
2022-12-05T19:57:51.990Z,101934.32
2022-12-05T20:00:22.696Z,101933.54
2022-12-05T20:02:55.717Z,101935.20
2022-12-05T20:05:29.670Z,101927.73
2022-12-05T20:08:02.481Z,101924.20
2022-12-05T20:10:37.912Z,101925.83
2022-12-05T20:13:44.757Z,101928.44
2022-12-05T20:16:03.682Z,101929.06
2022-12-05T20:18:38.163Z,101929.33
2022-12-05T20:21:12.320Z,101929.70
2022-12-05T20:23:44.589Z,101927.17
2022-12-05T20:26:19.313Z,101924.11
2022-12-05T20:28:51.795Z,101924.16
2022-12-05T20:31:25.586Z,101918.77
2022-12-05T20:33:58.223Z,101916.36
2022-12-05T20:36:32.778Z,101914.69
2022-12-05T20:39:06.914Z,101910.98
2022-12-05T20:41:40.812Z,101911.45
2022-12-05T20:44:14.908Z,101909.28
2022-12-05T20:46:51.886Z,101904.42
2022-12-05T20:49:24.999Z,101906.66
2022-12-05T20:51:57.657Z,101901.02
2022-12-05T20:54:29.052Z,101904.98
2022-12-05T20:57:03.178Z,101903.15
2022-12-05T20:59:35.399Z,101899.91
2022-12-05T21:02:08.840Z,101897.27
2022-12-05T21:04:41.291Z,101895.85
2022-12-05T21:07:13.494Z,101894.75
2022-12-05T21:09:46.003Z,101894.05
2022-12-05T21:12:18.143Z,101892.80
2022-12-05T21:14:50.850Z,101888.19
2022-12-05T21:17:23.184Z,101890.59
2022-12-05T21:19:55.943Z,101892.06
2022-12-05T21:22:28.158Z,101895.30
2022-12-05T21:25:00.370Z,101891.61
2022-12-05T21:27:32.554Z,101889.91
2022-12-05T21:30:05.336Z,101887.23
2022-12-05T21:32:35.843Z,101887.05
2022-12-05T21:35:09.103Z,101884.98
2022-12-05T21:37:41.592Z,101881.27
2022-12-05T21:40:14.693Z,101879.18
2022-12-05T21:42:46.871Z,101871.94
2022-12-05T21:45:19.195Z,101870.64
2022-12-05T21:47:51.802Z,101869.73
2022-12-05T21:50:22.332Z,101864.73
2022-12-05T21:52:54.568Z,101861.85
2022-12-05T21:55:26.786Z,101859.29
2022-12-05T21:57:59.749Z,101859.08
2022-12-05T22:00:32.100Z,101856.39
2022-12-05T22:03:04.749Z,101854.91
2022-12-05T22:05:35.303Z,101850.91
2022-12-05T22:08:07.989Z,101850.61
2022-12-05T22:10:40.563Z,101849.80
2022-12-05T22:13:11.353Z,101844.16
2022-12-05T22:15:43.538Z,101843.97
2022-12-05T22:18:17.227Z,101839.90
2022-12-05T22:20:58.479Z,101836.86
2022-12-05T22:23:33.785Z,101837.05
2022-12-05T22:26:08.050Z,101831.55
2022-12-05T22:28:42.771Z,101828.38
2022-12-05T22:31:17.506Z,101826.63
2022-12-05T22:33:50.058Z,101820.64
2022-12-05T22:36:21.619Z,101822.80
2022-12-05T22:38:55.752Z,101817.73
2022-12-05T22:41:30.415Z,101817.90
2022-12-05T22:44:03.737Z,101814.42
2022-12-05T22:46:37.119Z,101810.11
2022-12-05T22:49:12.246Z,101812.23
2022-12-05T22:51:45.106Z,101809.15
2022-12-05T22:54:18.808Z,101805.52
2022-12-05T22:56:52.326Z,101803.92
2022-12-05T22:59:25.723Z,101800.05
2022-12-05T23:01:59.428Z,101801.69
2022-12-05T23:04:32.796Z,101796.90
2022-12-05T23:07:06.103Z,101793.52
2022-12-05T23:09:39.782Z,101790.09
2022-12-05T23:12:12.945Z,101786.83
2022-12-05T23:14:45.784Z,101784.77
2022-12-05T23:24:28.212Z,101773.19
2022-12-05T23:27:00.436Z,101769.45
2022-12-05T23:29:32.631Z,101766.64
2022-12-05T23:32:04.991Z,101766.73
2022-12-05T23:34:37.275Z,101762.23
2022-12-05T23:37:09.535Z,101758.20
2022-12-05T23:39:41.701Z,101752.51
2022-12-05T23:42:15.436Z,101751.43
2022-12-05T23:44:47.880Z,101748.92
2022-12-05T23:47:20.103Z,101744.14
2022-12-05T23:49:52.434Z,101738.06
2022-12-05T23:52:24.894Z,101735.69
2022-12-05T23:54:57.160Z,101732.02
2022-12-05T23:57:29.466Z,101733.22
